Time;durP1;ratioP1;P1;durP2;ratioP2;P2;SDS_P1;SDS_P2;PMS_P1;PMS_P2;Temp;Humidity;BMP_temperature;BMP_pressure;BME280_temperature;BME280_humidity;BME280_pressure;Samples;Min_cycle;Max_cycle;Signal;HPM_P1;HPM_P2
2023/05/05 00:01:48;;;;;;;5.20;3.17;;;17.60;62.20;;;;;;5005615;28;20043;-78
2023/05/05 00:04:16;;;;;;;7.63;3.20;;;17.60;62.20;;;;;;5022588;28;20076;-78
2023/05/05 00:06:42;;;;;;;3.95;2.63;;;17.40;62.30;;;;;;5008048;28;20040;-78
2023/05/05 00:09:07;;;;;;;3.25;2.83;;;17.50;62.20;;;;;;5040546;28;20037;-78
2023/05/05 00:11:33;;;;;;;3.50;2.45;;;17.50;62.60;;;;;;5020108;28;20543;-78
2023/05/05 00:13:58;;;;;;;5.10;3.05;;;17.60;62.40;;;;;;5006446;28;20475;-78
2023/05/05 00:16:24;;;;;;;4.57;2.97;;;17.50;62.50;;;;;;5018949;28;20044;-78
2023/05/05 00:18:49;;;;;;;3.40;2.80;;;17.60;62.20;;;;;;5007426;28;20082;-77
2023/05/05 00:21:15;;;;;;;3.42;3.08;;;17.60;62.30;;;;;;5022416;28;20037;-78
2023/05/05 00:23:40;;;;;;;5.22;2.95;;;17.70;62.50;;;;;;5024081;28;20079;-77
2023/05/05 00:26:06;;;;;;;3.40;3.10;;;17.60;62.20;;;;;;5005434;28;20067;-78
2023/05/05 00:28:31;;;;;;;6.55;2.75;;;17.70;63.20;;;;;;5009257;28;20493;-78
2023/05/05 00:30:57;;;;;;;3.97;2.38;;;17.70;62.60;;;;;;5024632;28;20028;-78
2023/05/05 00:33:23;;;;;;;4.88;2.60;;;17.70;62.20;;;;;;5044154;28;20408;-77
2023/05/05 00:35:48;;;;;;;3.95;3.20;;;17.30;62.40;;;;;;5023644;28;20056;-78
2023/05/05 00:38:14;;;;;;;4.18;3.00;;;17.50;62.60;;;;;;5027812;28;20031;-78
2023/05/05 00:40:39;;;;;;;3.92;3.13;;;17.60;62.80;;;;;;5044407;28;20404;-78
2023/05/05 00:43:05;;;;;;;2.65;2.28;;;17.60;62.90;;;;;;5027887;28;20037;-78
2023/05/05 00:45:30;;;;;;;4.95;2.75;;;17.60;63.00;;;;;;5025856;28;20112;-78
2023/05/05 00:47:57;;;;;;;4.00;2.97;;;17.40;62.40;;;;;;5044333;28;20028;-78
2023/05/05 00:50:27;;;;;;;7.00;3.28;;;17.60;63.00;;;;;;5026446;28;20037;-77
2023/05/05 00:52:54;;;;;;;4.72;2.67;;;17.50;63.30;;;;;;5011510;28;20037;-78
2023/05/05 00:55:20;;;;;;;7.13;3.22;;;17.60;63.70;;;;;;5004612;28;20045;-78
2023/05/05 00:57:47;;;;;;;3.65;2.88;;;17.60;63.40;;;;;;5042626;28;20025;-78
2023/05/05 01:00:12;;;;;;;2.95;2.65;;;17.60;63.70;;;;;;5011186;28;20057;-77
2023/05/05 01:02:38;;;;;;;7.88;2.63;;;17.60;63.80;;;;;;5026026;28;20052;-77
2023/05/05 01:05:04;;;;;;;4.45;2.83;;;17.50;63.80;;;;;;5020855;28;20086;-77
2023/05/05 01:07:33;;;;;;;4.95;3.10;;;17.70;64.20;;;;;;5035659;28;20029;-77
2023/05/05 01:10:05;;;;;;;6.00;3.17;;;17.70;64.50;;;;;;5042077;28;20405;-77
2023/05/05 01:13:06;;;;;;;4.75;3.03;;;17.60;64.40;;;;;;5021371;28;20039;-77
2023/05/05 01:16:21;;;;;;;3.17;2.88;;;17.80;64.80;;;;;;4959841;28;20586;-76
2023/05/05 01:19:03;;;;;;;5.18;2.78;;;17.80;65.00;;;;;;5006230;28;20056;-77
2023/05/05 01:21:35;;;;;;;4.65;3.00;;;17.80;65.10;;;;;;5020194;28;20089;-77
2023/05/05 01:24:25;;;;;;;9.95;2.95;;;17.80;65.40;;;;;;5038302;28;20052;-79
2023/05/05 01:27:15;;;;;;;3.50;2.95;;;17.80;65.30;;;;;;5027171;28;20519;-79
2023/05/05 01:30:07;;;;;;;9.85;4.30;;;17.80;65.60;;;;;;5029838;28;20035;-79
2023/05/05 01:32:35;;;;;;;3.17;2.88;;;17.80;65.70;;;;;;5028756;28;20518;-78
2023/05/05 01:35:03;;;;;;;3.70;3.20;;;17.80;65.90;;;;;;5028784;28;20090;-78
2023/05/05 01:37:48;;;;;;;5.53;3.10;;;17.90;65.90;;;;;;5010829;28;20116;-78
2023/05/05 01:40:14;;;;;;;7.90;3.22;;;17.80;66.40;;;;;;5012317;28;20481;-78
2023/05/05 01:42:40;;;;;;;7.32;3.80;;;17.80;66.60;;;;;;5025406;28;20602;-79
2023/05/05 01:45:07;;;;;;;3.42;2.95;;;17.70;67.20;;;;;;5027003;28;20025;-78
2023/05/05 01:47:32;;;;;;;5.18;3.20;;;17.80;67.30;;;;;;5011600;28;20026;-78
2023/05/05 01:49:58;;;;;;;4.03;3.28;;;17.80;67.50;;;;;;5026046;28;20032;-79
2023/05/05 01:52:23;;;;;;;4.88;3.35;;;17.70;67.80;;;;;;5026478;28;20033;-78
2023/05/05 01:54:49;;;;;;;3.33;3.03;;;17.70;68.00;;;;;;5010461;28;20029;-78
2023/05/05 01:57:14;;;;;;;7.13;3.42;;;17.70;68.30;;;;;;5024912;28;20026;-78
2023/05/05 01:59:40;;;;;;;3.97;3.50;;;17.80;68.70;;;;;;5025632;28;20513;-78
2023/05/05 02:02:07;;;;;;;6.22;3.30;;;17.60;68.70;;;;;;5031237;28;20544;-78
2023/05/05 02:04:32;;;;;;;4.85;3.78;;;17.60;69.60;;;;;;5022742;28;20033;-79
2023/05/05 02:06:59;;;;;;;5.03;3.67;;;17.70;69.40;;;;;;5021370;28;20116;-78
2023/05/05 02:09:26;;;;;;;4.13;3.55;;;17.50;69.30;;;;;;5042007;28;20021;-78
2023/05/05 02:11:51;;;;;;;4.50;4.00;;;17.40;69.80;;;;;;5026759;28;20613;-78
2023/05/05 02:14:18;;;;;;;8.48;3.60;;;17.40;69.90;;;;;;5024624;28;20029;-78
2023/05/05 02:16:44;;;;;;;4.35;3.13;;;17.40;70.70;;;;;;5027131;28;20111;-78
2023/05/05 02:19:11;;;;;;;5.10;4.13;;;17.50;71.00;;;;;;5026885;28;20171;-79
2023/05/05 02:21:36;;;;;;;6.00;3.53;;;17.50;71.30;;;;;;5024532;28;20408;-78
2023/05/05 02:24:02;;;;;;;7.65;3.83;;;17.50;71.80;;;;;;5007243;28;20029;-78
2023/05/05 02:26:27;;;;;;;6.95;4.72;;;17.50;71.60;;;;;;5012338;28;20484;-79
2023/05/05 02:29:06;;;;;;;5.15;3.78;;;17.40;72.90;;;;;;5010232;28;20033;-79
2023/05/05 02:31:33;;;;;;;5.18;4.03;;;17.40;71.80;;;;;;5023352;28;20040;-78
2023/05/05 02:34:00;;;;;;;5.15;3.72;;;17.40;73.30;;;;;;5021789;28;20033;-79
2023/05/05 02:36:27;;;;;;;5.53;4.18;;;17.30;72.60;;;;;;5011411;28;20134;-79
2023/05/05 02:38:55;;;;;;;8.10;4.13;;;17.30;72.50;;;;;;5009128;28;20033;-79
2023/05/05 02:41:20;;;;;;;5.45;4.00;;;17.40;74.00;;;;;;5043069;28;20543;-79
2023/05/05 02:43:47;;;;;;;7.03;4.90;;;17.00;74.00;;;;;;5027148;28;20037;-78
2023/05/05 02:46:13;;;;;;;5.80;4.30;;;17.00;74.30;;;;;;5042345;28;20029;-78
2023/05/05 02:48:38;;;;;;;6.63;4.75;;;16.90;74.40;;;;;;5007836;28;20036;-79
2023/05/05 02:51:05;;;;;;;8.18;5.13;;;17.20;74.80;;;;;;5026638;28;20118;-79
2023/05/05 02:53:31;;;;;;;5.00;3.85;;;16.90;75.60;;;;;;5007479;28;20037;-78
2023/05/05 02:56:07;;;;;;;6.85;5.35;;;16.90;74.80;;;;;;5018816;28;20036;-78
2023/05/05 02:58:41;;;;;;;6.22;4.00;;;16.90;75.40;;;;;;5042070;28;20040;-78
2023/05/05 03:01:10;;;;;;;8.32;5.78;;;16.90;76.30;;;;;;5007879;28;20517;-79
2023/05/05 03:03:50;;;;;;;10.02;5.18;;;16.80;76.20;;;;;;5045629;28;20045;-79
2023/05/05 03:06:17;;;;;;;7.22;4.65;;;16.90;77.40;;;;;;5040287;28;20047;-79
2023/05/05 03:09:20;;;;;;;10.10;7.57;;;16.90;77.80;;;;;;5011216;28;20025;-79
2023/05/05 03:11:51;;;;;;;6.50;4.65;;;16.90;79.00;;;;;;5044332;28;20083;-79
2023/05/05 03:14:18;;;;;;;8.38;5.78;;;16.90;78.30;;;;;;5040923;28;20048;-79
2023/05/05 03:16:44;;;;;;;8.85;5.15;;;16.80;77.80;;;;;;5027483;28;20396;-79
2023/05/05 03:19:11;;;;;;;7.18;5.55;;;16.80;78.40;;;;;;5026533;28;20033;-79
2023/05/05 03:21:36;;;;;;;9.55;6.45;;;16.90;77.60;;;;;;5010135;28;20594;-80
2023/05/05 03:24:13;;;;;;;10.50;6.07;;;16.80;78.30;;;;;;5026449;28;20033;-79
2023/05/05 03:26:39;;;;;;;7.65;5.28;;;16.90;79.30;;;;;;5026194;28;20036;-80
2023/05/05 03:29:05;;;;;;;10.05;6.18;;;16.90;78.60;;;;;;5025136;28;20032;-79
2023/05/05 03:31:31;;;;;;;11.18;6.63;;;16.90;79.00;;;;;;5027330;28;20552;-79
2023/05/05 03:33:57;;;;;;;6.80;4.38;;;16.90;79.30;;;;;;5043825;28;20128;-79
2023/05/05 03:36:22;;;;;;;6.05;4.85;;;16.80;79.20;;;;;;5023980;28;20440;-79
2023/05/05 03:38:48;;;;;;;6.70;5.03;;;16.80;80.70;;;;;;5010721;28;20036;-79
2023/05/05 03:41:13;;;;;;;7.32;5.30;;;16.60;80.20;;;;;;5034710;28;20492;-79
2023/05/05 03:43:40;;;;;;;5.63;5.07;;;16.60;81.00;;;;;;5009990;28;20037;-80
2023/05/05 03:46:05;;;;;;;6.43;5.40;;;16.60;80.70;;;;;;5009970;28;20083;-79
2023/05/05 03:48:32;;;;;;;10.80;7.32;;;16.50;80.00;;;;;;5025822;28;20444;-79
2023/05/05 03:50:58;;;;;;;7.80;5.30;;;16.50;80.50;;;;;;5024795;28;20041;-79
2023/05/05 03:53:24;;;;;;;9.85;7.60;;;16.60;81.40;;;;;;5024296;28;20401;-80
2023/05/05 03:55:50;;;;;;;9.48;8.27;;;16.50;80.40;;;;;;5024633;28;20722;-77
2023/05/05 03:58:16;;;;;;;7.05;5.50;;;15.90;81.90;;;;;;5026006;28;20029;-77
2023/05/05 04:00:41;;;;;;;5.88;4.90;;;16.30;80.90;;;;;;5008272;28;20041;-78
2023/05/05 04:03:07;;;;;;;10.55;7.90;;;16.20;81.00;;;;;;5008580;28;20244;-78
2023/05/05 04:05:32;;;;;;;5.13;4.38;;;16.30;84.30;;;;;;5036670;28;20083;-79
2023/05/05 04:07:58;;;;;;;7.22;4.47;;;16.30;83.90;;;;;;5026130;28;20108;-78
2023/05/05 04:10:24;;;;;;;5.93;4.00;;;16.30;84.30;;;;;;5009730;28;20111;-78
2023/05/05 04:12:49;;;;;;;12.70;7.20;;;16.30;84.20;;;;;;5008942;28;20041;-77
2023/05/05 04:15:15;;;;;;;5.72;5.00;;;16.20;84.60;;;;;;5036572;28;20037;-79
2023/05/05 04:17:40;;;;;;;6.00;4.93;;;16.10;84.00;;;;;;5010243;28;20421;-80
2023/05/05 04:20:07;;;;;;;9.95;6.63;;;16.00;84.60;;;;;;5027783;28;20043;-79
2023/05/05 04:22:32;;;;;;;9.00;6.45;;;16.00;86.40;;;;;;5040332;28;20485;-79
2023/05/05 04:24:58;;;;;;;7.85;6.55;;;16.00;87.40;;;;;;5004668;28;20114;-77
2023/05/05 04:27:25;;;;;;;7.20;6.05;;;16.00;87.60;;;;;;5006949;28;20257;-78
2023/05/05 04:29:50;;;;;;;6.60;5.60;;;15.60;86.90;;;;;;5025186;28;20025;-78
2023/05/05 04:32:16;;;;;;;8.35;5.85;;;15.90;86.30;;;;;;5024637;28;20506;-78
2023/05/05 04:34:42;;;;;;;8.52;6.65;;;15.80;87.70;;;;;;5023918;28;20043;-78
2023/05/05 04:37:07;;;;;;;7.28;6.20;;;15.70;87.50;;;;;;5024434;28;20029;-78
2023/05/05 04:39:33;;;;;;;11.40;8.57;;;15.80;89.50;;;;;;5026356;28;20037;-77
2023/05/05 04:41:59;;;;;;;9.68;6.80;;;15.80;89.80;;;;;;5006006;28;20097;-77
2023/05/05 04:44:24;;;;;;;14.02;7.53;;;15.70;88.80;;;;;;5021306;28;20283;-78
2023/05/05 04:46:50;;;;;;;8.88;6.47;;;15.70;89.90;;;;;;5022027;28;20119;-77
2023/05/05 04:49:15;;;;;;;12.77;8.32;;;15.50;89.40;;;;;;5023950;28;20102;-77
2023/05/05 04:51:41;;;;;;;6.72;5.45;;;15.60;90.00;;;;;;5040272;28;20035;-78
2023/05/05 04:54:07;;;;;;;11.23;8.45;;;15.60;90.10;;;;;;5025810;28;20067;-78
2023/05/05 04:56:32;;;;;;;8.75;6.13;;;15.60;90.00;;;;;;5023189;28;20037;-78
2023/05/05 04:58:58;;;;;;;6.82;6.13;;;15.70;90.60;;;;;;5007689;28;20029;-78
2023/05/05 05:01:23;;;;;;;12.43;8.32;;;15.80;90.80;;;;;;5023633;28;20415;-79
2023/05/05 05:03:49;;;;;;;9.48;5.97;;;15.80;91.40;;;;;;5005726;28;20591;-78
2023/05/05 05:06:15;;;;;;;7.60;6.45;;;15.90;91.00;;;;;;5036703;28;20127;-79
2023/05/05 05:08:41;;;;;;;5.72;5.13;;;15.80;90.80;;;;;;5021639;28;20037;-78
2023/05/05 05:11:07;;;;;;;8.82;6.85;;;15.90;91.60;;;;;;5022537;28;20452;-79
2023/05/05 05:13:32;;;;;;;15.57;11.50;;;16.00;91.20;;;;;;5023062;28;20526;-79
2023/05/05 05:15:59;;;;;;;7.38;6.13;;;16.10;92.20;;;;;;5023168;28;20041;-79
2023/05/05 05:18:24;;;;;;;11.27;9.80;;;15.90;92.00;;;;;;5008711;28;20493;-78
2023/05/05 05:20:50;;;;;;;11.73;9.10;;;16.00;92.50;;;;;;5010964;28;20033;-78
2023/05/05 05:23:15;;;;;;;20.10;11.23;;;16.10;93.00;;;;;;5043480;28;20048;-79
2023/05/05 05:25:41;;;;;;;7.30;6.60;;;16.10;95.40;;;;;;5025289;28;20051;-78
2023/05/05 05:28:07;;;;;;;8.30;6.85;;;16.10;92.60;;;;;;5011520;28;20036;-78
2023/05/05 05:30:32;;;;;;;10.05;7.05;;;16.20;92.60;;;;;;5026489;28;20028;-78
2023/05/05 05:32:58;;;;;;;12.75;9.20;;;16.20;92.80;;;;;;5009589;28;20120;-78
2023/05/05 05:35:24;;;;;;;9.45;7.30;;;16.30;93.50;;;;;;5025993;28;20022;-78
2023/05/05 05:37:50;;;;;;;11.70;8.10;;;16.30;93.50;;;;;;5042050;28;20044;-78
2023/05/05 05:40:16;;;;;;;7.72;6.80;;;16.20;93.50;;;;;;5027558;28;20021;-78
2023/05/05 05:42:41;;;;;;;13.05;10.13;;;16.40;93.60;;;;;;5026336;28;20428;-79
2023/05/05 05:45:07;;;;;;;11.18;7.68;;;16.40;92.90;;;;;;5028052;28;20044;-78
2023/05/05 05:47:33;;;;;;;13.25;8.10;;;16.40;94.00;;;;;;5042435;28;20032;-78
2023/05/05 05:49:59;;;;;;;11.93;8.30;;;16.50;93.50;;;;;;5027316;28;20040;-79
2023/05/05 05:52:24;;;;;;;13.90;7.97;;;16.50;94.20;;;;;;5027714;28;20811;-79
2023/05/05 05:54:50;;;;;;;10.25;8.40;;;16.60;94.50;;;;;;5025631;28;20082;-79
2023/05/05 05:57:15;;;;;;;12.85;9.98;;;16.50;93.90;;;;;;5008915;28;20029;-78
2023/05/05 05:59:41;;;;;;;9.23;7.97;;;16.70;93.90;;;;;;5026294;28;20029;-79
2023/05/05 06:02:06;;;;;;;12.60;9.30;;;16.70;94.20;;;;;;5027848;28;20025;-79
2023/05/05 06:04:32;;;;;;;10.55;9.00;;;16.70;94.50;;;;;;5027203;28;20074;-78
2023/05/05 06:06:58;;;;;;;15.20;10.35;;;16.80;94.70;;;;;;5041298;28;20703;-80
2023/05/05 06:09:24;;;;;;;12.50;9.57;;;16.90;93.90;;;;;;5026536;28;20037;-79
2023/05/05 06:11:49;;;;;;;11.38;8.13;;;17.00;94.20;;;;;;5027341;28;20041;-80
2023/05/05 06:14:15;;;;;;;13.38;10.93;;;17.10;93.80;;;;;;5023509;28;20033;-80
2023/05/05 06:16:41;;;;;;;10.93;8.52;;;17.20;94.20;;;;;;5010083;28;20098;-79
2023/05/05 06:19:08;;;;;;;11.27;8.45;;;17.20;94.00;;;;;;5027593;28;20488;-79
2023/05/05 06:21:36;;;;;;;14.45;10.52;;;17.40;94.70;;;;;;5004909;28;20049;-79
2023/05/05 06:24:02;;;;;;;11.63;8.75;;;17.50;94.70;;;;;;5003349;28;20036;-79
2023/05/05 06:26:28;;;;;;;12.57;9.13;;;17.70;94.30;;;;;;5007387;28;20030;-79
2023/05/05 06:28:53;;;;;;;11.82;9.43;;;17.80;94.10;;;;;;5010127;28;20048;-78
2023/05/05 06:31:19;;;;;;;12.32;9.85;;;17.90;94.10;;;;;;5010548;28;20056;-78
2023/05/05 06:33:45;;;;;;;13.02;9.00;;;18.00;93.90;;;;;;5026834;28;20105;-79
2023/05/05 06:36:10;;;;;;;14.00;10.02;;;18.20;93.70;;;;;;5023438;28;20041;-79
2023/05/05 06:38:36;;;;;;;14.05;9.23;;;18.40;93.50;;;;;;5025255;28;20036;-80
2023/05/05 06:41:01;;;;;;;11.90;8.82;;;18.50;93.40;;;;;;5025302;28;20041;-79
2023/05/05 06:43:27;;;;;;;9.85;8.85;;;18.80;93.60;;;;;;5024821;28;20036;-80
2023/05/05 06:45:53;;;;;;;9.23;7.53;;;19.00;93.70;;;;;;5024834;28;20482;-79
2023/05/05 06:48:19;;;;;;;12.52;9.15;;;19.00;93.10;;;;;;5042598;28;20024;-80
2023/05/05 06:50:44;;;;;;;9.02;7.80;;;19.40;93.90;;;;;;5042123;28;20033;-79
2023/05/05 06:53:10;;;;;;;13.00;9.73;;;19.50;92.50;;;;;;5009926;28;20040;-80
2023/05/05 06:55:35;;;;;;;10.65;9.02;;;19.60;92.40;;;;;;5010907;28;20047;-80
2023/05/05 06:58:01;;;;;;;14.43;10.07;;;19.80;92.50;;;;;;5025160;28;20397;-79
2023/05/05 07:00:27;;;;;;;10.07;8.90;;;19.80;92.10;;;;;;5043183;28;20374;-79
2023/05/05 07:02:52;;;;;;;9.82;8.02;;;20.00;91.40;;;;;;5022265;28;20043;-80
2023/05/05 07:05:18;;;;;;;8.63;6.82;;;20.10;91.60;;;;;;5031963;28;20025;-80
2023/05/05 07:07:53;;;;;;;9.20;7.18;;;20.30;91.20;;;;;;5025211;28;20044;-80
2023/05/05 07:10:19;;;;;;;9.45;6.60;;;20.60;91.70;;;;;;5041398;28;20045;-80
2023/05/05 07:12:45;;;;;;;7.80;6.45;;;20.90;91.50;;;;;;5025580;28;20037;-80
2023/05/05 07:15:11;;;;;;;7.18;5.35;;;21.20;91.80;;;;;;5008119;28;20040;-80
2023/05/05 07:17:36;;;;;;;9.95;4.93;;;21.30;90.40;;;;;;5042482;28;20108;-80
2023/05/05 07:20:02;;;;;;;5.45;4.93;;;21.60;91.70;;;;;;5041507;28;20400;-80
2023/05/05 07:22:27;;;;;;;6.10;5.40;;;21.70;91.30;;;;;;5025746;28;20136;-80
2023/05/05 07:24:53;;;;;;;6.03;4.80;;;22.00;90.50;;;;;;5020408;28;20045;-80
2023/05/05 07:27:21;;;;;;;9.70;4.75;;;22.10;90.90;;;;;;5025102;28;20161;-80
2023/05/05 07:29:47;;;;;;;6.88;5.85;;;22.20;90.10;;;;;;5038993;28;20098;-80
2023/05/05 07:32:13;;;;;;;9.43;5.75;;;22.30;90.80;;;;;;5007295;28;20496;-80
2023/05/05 07:34:39;;;;;;;8.40;5.50;;;22.40;90.00;;;;;;5007831;28;20139;-79
2023/05/05 07:37:05;;;;;;;7.47;4.95;;;22.40;90.40;;;;;;5007455;28;20096;-79
2023/05/05 07:39:31;;;;;;;11.77;5.70;;;22.50;89.70;;;;;;5024846;28;20518;-80
2023/05/05 07:41:56;;;;;;;7.22;4.85;;;22.50;88.70;;;;;;5007039;28;20040;-79
2023/05/05 07:44:22;;;;;;;6.25;4.30;;;22.50;88.60;;;;;;5025207;28;20037;-79
2023/05/05 07:46:48;;;;;;;12.32;6.10;;;22.60;89.20;;;;;;5025774;28;20313;-79
2023/05/05 07:49:13;;;;;;;9.68;5.97;;;22.70;90.20;;;;;;5022564;28;20388;-79
2023/05/05 07:51:39;;;;;;;7.20;6.28;;;22.70;86.30;;;;;;5019375;28;20037;-79
2023/05/05 07:54:04;;;;;;;8.95;5.80;;;22.70;88.70;;;;;;5020448;28;20032;-79
2023/05/05 07:56:30;;;;;;;8.48;5.38;;;22.90;89.00;;;;;;5007365;28;20036;-78
2023/05/05 07:58:56;;;;;;;7.45;5.10;;;23.20;88.40;;;;;;5037237;28;20036;-78
2023/05/05 08:01:21;;;;;;;7.85;5.47;;;23.30;88.00;;;;;;5022359;28;20025;-78
2023/05/05 08:03:47;;;;;;;11.57;6.03;;;23.40;87.40;;;;;;5026520;28;20359;-78
2023/05/05 08:06:14;;;;;;;8.73;5.65;;;23.60;87.70;;;;;;5005562;28;20045;-80
2023/05/05 08:08:40;;;;;;;5.30;4.70;;;23.70;86.40;;;;;;5024230;28;20492;-79
2023/05/05 08:11:06;;;;;;;8.98;4.95;;;23.90;84.40;;;;;;5022142;28;20101;-79
2023/05/05 08:13:32;;;;;;;6.28;4.05;;;24.10;84.50;;;;;;5005410;28;20108;-79
2023/05/05 08:15:58;;;;;;;7.00;4.13;;;24.10;84.20;;;;;;5020011;28;20128;-79
2023/05/05 08:18:23;;;;;;;4.47;3.92;;;24.10;84.30;;;;;;5022495;28;20025;-77
2023/05/05 08:20:49;;;;;;;5.07;4.57;;;24.00;84.50;;;;;;5007383;28;20071;-78
2023/05/05 08:23:15;;;;;;;7.38;5.15;;;24.10;84.50;;;;;;5007991;28;20442;-79
2023/05/05 08:25:42;;;;;;;8.68;5.57;;;24.30;83.00;;;;;;5024305;28;20037;-78
2023/05/05 08:28:07;;;;;;;5.47;4.32;;;24.50;82.00;;;;;;5040032;28;20481;-79
2023/05/05 08:30:33;;;;;;;5.20;4.10;;;24.30;82.70;;;;;;5019929;28;20079;-78
2023/05/05 08:32:59;;;;;;;6.82;4.30;;;24.40;82.70;;;;;;5002990;28;20048;-78
2023/05/05 08:35:24;;;;;;;6.35;3.63;;;24.30;81.60;;;;;;5035117;28;20112;-79
2023/05/05 08:37:50;;;;;;;7.03;4.65;;;24.60;81.20;;;;;;5006483;28;20104;-78
2023/05/05 08:40:16;;;;;;;9.10;4.00;;;24.90;81.70;;;;;;5037873;28;20033;-78
2023/05/05 08:42:43;;;;;;;4.38;3.47;;;25.00;82.00;;;;;;5021799;28;20079;-78
2023/05/05 08:45:09;;;;;;;6.90;4.72;;;25.20;82.20;;;;;;5023729;28;20044;-79
2023/05/05 08:47:35;;;;;;;3.63;3.17;;;25.30;80.70;;;;;;5023898;28;20095;-78
2023/05/05 08:50:00;;;;;;;4.30;3.78;;;25.50;79.20;;;;;;5008006;28;20037;-78
2023/05/05 08:52:28;;;;;;;12.48;5.85;;;25.40;79.00;;;;;;5010440;28;20099;-78
2023/05/05 08:55:03;;;;;;;6.72;4.18;;;25.60;80.30;;;;;;5025866;28;20044;-78
2023/05/05 08:57:35;;;;;;;5.78;3.60;;;25.90;78.80;;;;;;5022238;28;20557;-78
2023/05/05 09:00:01;;;;;;;6.30;3.65;;;25.90;78.70;;;;;;5026330;28;20108;-78
2023/05/05 09:02:28;;;;;;;4.68;3.70;;;26.00;78.00;;;;;;5011579;28;20108;-79
2023/05/05 09:04:54;;;;;;;3.55;3.08;;;25.90;78.50;;;;;;5021621;28;20143;-78
2023/05/05 09:07:19;;;;;;;3.67;2.80;;;25.90;77.50;;;;;;5025853;28;20473;-77
2023/05/05 09:09:45;;;;;;;9.25;5.65;;;26.00;78.70;;;;;;5028251;28;20025;-77
2023/05/05 09:12:10;;;;;;;4.93;2.88;;;26.40;76.70;;;;;;5028994;28;20037;-78
2023/05/05 09:14:36;;;;;;;8.95;5.55;;;26.50;77.10;;;;;;5025948;28;20061;-78
2023/05/05 09:17:02;;;;;;;6.68;4.22;;;26.60;77.20;;;;;;5010111;28;20091;-77
2023/05/05 09:19:27;;;;;;;7.45;3.95;;;26.90;75.30;;;;;;5023201;28;20440;-78
2023/05/05 09:21:53;;;;;;;7.28;3.70;;;26.70;76.40;;;;;;5027416;28;20446;-78
2023/05/05 09:24:22;;;;;;;8.18;5.80;;;26.80;76.50;;;;;;4998318;28;20397;-78
2023/05/05 09:26:48;;;;;;;6.53;4.55;;;27.10;76.50;;;;;;4996597;28;20484;-78
2023/05/05 09:29:20;;;;;;;5.95;4.43;;;27.10;75.60;;;;;;5007345;28;20140;-78
2023/05/05 09:32:07;;;;;;;6.15;3.05;;;27.40;74.80;;;;;;5037854;28;20108;-78
2023/05/05 09:34:33;;;;;;;7.18;5.00;;;27.30;75.10;;;;;;5037857;28;20030;-78
2023/05/05 09:36:59;;;;;;;4.78;3.38;;;27.40;73.60;;;;;;5019973;28;20048;-78
2023/05/05 09:39:25;;;;;;;3.90;3.50;;;27.40;74.60;;;;;;5008422;28;20025;-78
2023/05/05 09:41:50;;;;;;;4.97;2.97;;;27.40;74.60;;;;;;5044071;28;20040;-78
2023/05/05 09:44:16;;;;;;;7.53;3.80;;;27.40;74.40;;;;;;5041420;28;20037;-78
2023/05/05 09:46:49;;;;;;;5.97;4.38;;;27.60;74.40;;;;;;5009610;28;20123;-78
2023/05/05 09:49:19;;;;;;;5.88;3.70;;;27.60;73.80;;;;;;5041944;28;20056;-79
2023/05/05 09:51:48;;;;;;;9.07;4.63;;;27.80;73.40;;;;;;5025967;28;20522;-80
2023/05/05 09:54:40;;;;;;;8.27;4.70;;;27.80;72.80;;;;;;5025122;28;20040;-80
2023/05/05 09:57:06;;;;;;;4.60;3.13;;;28.10;72.00;;;;;;5038959;28;20048;-79
2023/05/05 09:59:31;;;;;;;5.00;3.15;;;28.20;71.70;;;;;;5027498;28;20489;-80
2023/05/05 10:02:11;;;;;;;4.75;3.25;;;28.40;71.40;;;;;;5022047;28;20457;-80
2023/05/05 10:04:37;;;;;;;3.55;2.55;;;28.60;72.00;;;;;;5005793;28;20053;-81
2023/05/05 10:07:02;;;;;;;6.13;3.00;;;28.90;71.30;;;;;;5008557;28;20040;-80
2023/05/05 10:09:28;;;;;;;3.15;2.38;;;29.00;71.90;;;;;;5038990;28;20040;-81
2023/05/05 10:11:54;;;;;;;4.63;2.63;;;29.20;71.20;;;;;;5008284;28;20413;-81
2023/05/05 10:14:20;;;;;;;3.85;2.42;;;29.40;70.30;;;;;;5009492;28;20067;-80
2023/05/05 10:16:50;;;;;;;8.10;3.95;;;29.60;70.60;;;;;;5026240;28;20064;-80
2023/05/05 10:19:17;;;;;;;6.15;3.97;;;30.00;69.30;;;;;;5043231;28;20040;-80
2023/05/05 10:21:48;;;;;;;5.43;3.30;;;30.30;68.70;;;;;;5018542;28;20489;-80
2023/05/05 10:24:22;;;;;;;7.68;4.05;;;30.40;67.80;;;;;;5026143;28;20129;-80
2023/05/05 10:26:48;;;;;;;7.45;4.25;;;30.40;67.60;;;;;;5041861;28;20060;-80
2023/05/05 10:29:40;;;;;;;4.68;3.42;;;30.50;66.90;;;;;;5025147;28;20033;-80
2023/05/05 10:32:16;;;;;;;5.55;3.38;;;30.80;67.30;;;;;;5043255;28;20559;-80
2023/05/05 10:34:50;;;;;;;3.25;1.98;;;31.00;65.50;;;;;;5010434;28;20116;-80
2023/05/05 10:37:19;;;;;;;3.38;2.10;;;30.90;67.40;;;;;;5008588;28;20029;-79
2023/05/05 10:39:44;;;;;;;3.80;2.08;;;31.00;66.80;;;;;;5010459;28;20029;-80
2023/05/05 10:42:12;;;;;;;5.53;2.42;;;31.20;64.40;;;;;;5024677;28;20040;-81
2023/05/05 10:44:37;;;;;;;3.00;2.72;;;31.10;63.80;;;;;;5039334;28;20038;-81
2023/05/05 10:47:03;;;;;;;6.88;3.30;;;31.30;63.50;;;;;;5038600;28;20036;-80
2023/05/05 10:49:44;;;;;;;7.22;3.10;;;31.50;62.10;;;;;;5009652;28;20037;-81
2023/05/05 10:52:19;;;;;;;2.90;2.30;;;31.60;61.80;;;;;;5009014;28;20044;-80
2023/05/05 10:54:54;;;;;;;4.28;3.15;;;31.80;62.00;;;;;;5024824;28;20040;-78
2023/05/05 10:57:22;;;;;;;4.20;2.78;;;31.80;63.40;;;;;;5009635;28;20079;-80
2023/05/05 10:59:48;;;;;;;4.80;3.60;;;32.10;61.20;;;;;;5008003;28;20111;-80
2023/05/05 11:02:24;;;;;;;3.33;3.03;;;32.20;60.80;;;;;;5010086;28;20116;-80
2023/05/05 11:05:16;;;;;;;2.22;2.03;;;32.30;59.60;;;;;;5034021;28;20041;-81
2023/05/05 11:07:46;;;;;;;3.58;2.35;;;32.40;59.60;;;;;;5025136;28;20032;-81
2023/05/05 11:10:13;;;;;;;4.55;2.70;;;32.50;60.70;;;;;;5023213;28;20025;-81
2023/05/05 11:12:50;;;;;;;3.38;2.28;;;32.60;58.90;;;;;;5010600;28;20037;-81
2023/05/05 11:15:25;;;;;;;5.18;2.03;;;32.50;58.40;;;;;;5040351;28;20491;-79
2023/05/05 11:17:54;;;;;;;2.40;2.20;;;32.50;57.50;;;;;;5035861;28;20501;-81
2023/05/05 11:20:42;;;;;;;2.97;2.67;;;32.40;58.00;;;;;;5037896;28;20833;-80
2023/05/05 11:23:07;;;;;;;4.00;2.30;;;32.30;57.90;;;;;;5039684;28;20484;-80
2023/05/05 11:25:37;;;;;;;7.10;2.83;;;32.30;57.60;;;;;;5041254;28;20029;-81
2023/05/05 11:28:07;;;;;;;3.10;2.30;;;32.20;56.90;;;;;;5041277;28;20033;-81
2023/05/05 11:30:32;;;;;;;3.67;2.50;;;32.10;56.70;;;;;;5041557;28;20089;-81
2023/05/05 11:33:23;;;;;;;3.70;3.10;;;32.00;56.70;;;;;;5023664;28;20502;-81
2023/05/05 11:35:59;;;;;;;3.08;2.75;;;32.20;59.30;;;;;;5042982;28;20373;-81
2023/05/05 11:38:47;;;;;;;3.72;2.58;;;31.80;57.40;;;;;;5007658;28;20040;-80
2023/05/05 11:41:31;;;;;;;4.70;2.45;;;31.90;57.80;;;;;;5031337;28;20048;-80
2023/05/05 11:44:15;;;;;;;3.45;2.65;;;32.00;56.60;;;;;;5040727;28;20041;-80
2023/05/05 11:46:50;;;;;;;2.42;2.22;;;31.70;56.80;;;;;;5025676;28;20119;-81
2023/05/05 11:49:31;;;;;;;3.77;2.70;;;31.60;56.60;;;;;;5054565;28;20045;-80
2023/05/05 11:51:57;;;;;;;3.35;3.03;;;31.30;56.70;;;;;;5019962;28;20032;-80
2023/05/05 11:54:25;;;;;;;4.93;2.70;;;31.20;56.50;;;;;;5039042;28;20499;-79
2023/05/05 11:56:51;;;;;;;2.83;2.22;;;30.90;57.50;;;;;;4995473;28;20547;-80
2023/05/05 11:59:17;;;;;;;3.60;2.30;;;30.60;58.60;;;;;;5020140;28;20036;-80
2023/05/05 12:01:43;;;;;;;3.97;2.42;;;30.20;59.00;;;;;;5022989;28;20497;-80
2023/05/05 12:04:12;;;;;;;4.10;2.72;;;29.70;61.20;;;;;;5012369;28;20187;-80
2023/05/05 12:06:40;;;;;;;7.18;2.42;;;29.00;63.30;;;;;;5018492;28;20050;-80
2023/05/05 12:09:07;;;;;;;4.43;2.38;;;28.40;66.10;;;;;;5005468;28;20385;-80
2023/05/05 12:11:33;;;;;;;4.30;2.30;;;27.50;69.20;;;;;;5021825;28;20504;-81
2023/05/05 12:14:09;;;;;;;4.55;2.50;;;26.70;71.50;;;;;;5005952;28;20049;-83
2023/05/05 12:16:34;;;;;;;4.43;1.50;;;25.80;73.10;;;;;;5031166;28;20699;-83
2023/05/05 12:19:06;;;;;;;4.18;1.50;;;25.00;74.30;;;;;;5024543;28;20037;-83
2023/05/05 12:21:33;;;;;;;2.25;1.50;;;24.30;74.50;;;;;;5036857;28;20025;-83
2023/05/05 12:23:59;;;;;;;1.98;1.50;;;23.70;76.40;;;;;;5001867;28;20456;-83
2023/05/05 12:26:28;;;;;;;2.28;1.60;;;23.20;76.10;;;;;;5038958;28;20045;-83
2023/05/05 12:28:55;;;;;;;2.65;1.65;;;22.70;76.60;;;;;;5027685;28;20468;-82
2023/05/05 12:31:20;;;;;;;4.80;1.70;;;22.30;78.20;;;;;;5041648;28;20045;-82
2023/05/05 12:33:46;;;;;;;2.97;1.73;;;22.10;77.90;;;;;;5032710;28;20546;-82
2023/05/05 12:36:12;;;;;;;4.97;1.85;;;21.90;78.40;;;;;;5015355;28;20376;-83
2023/05/05 12:38:38;;;;;;;3.35;1.50;;;21.60;77.50;;;;;;5044551;28;20120;-83
2023/05/05 12:41:03;;;;;;;2.72;1.30;;;21.50;78.10;;;;;;5014633;28;20087;-82
2023/05/05 12:43:33;;;;;;;3.75;1.70;;;21.40;81.40;;;;;;5026353;28;20094;-83
2023/05/05 12:45:59;;;;;;;3.58;1.67;;;21.50;84.00;;;;;;5030143;28;20029;-83
2023/05/05 12:48:25;;;;;;;1.85;1.30;;;21.20;79.90;;;;;;5031034;28;20103;-84
2023/05/05 12:50:51;;;;;;;4.43;1.65;;;21.10;80.30;;;;;;5031757;28;20576;-83